Time;durP1;ratioP1;P1;durP2;ratioP2;P2;SDS_P1;SDS_P2;PMS_P1;PMS_P2;Temp;Humidity;BMP_temperature;BMP_pressure;BME280_temperature;BME280_humidity;BME280_pressure;Samples;Min_cycle;Max_cycle;Signal;HPM_P1;HPM_P2
2021/09/14 00:01:10;;;;;;;;;;;;;;;19.85;38.27;99533.69;5051315;28;888;-58
2021/09/14 00:03:37;;;;;;;;;;;;;;;19.85;38.47;99536.50;5051352;28;822;-57
2021/09/14 00:06:04;;;;;;;;;;;;;;;19.84;38.48;99527.28;5051266;28;795;-57
2021/09/14 00:08:30;;;;;;;;;;;;;;;19.83;38.56;99530.59;5051220;28;1886;-57
2021/09/14 00:10:58;;;;;;;;;;;;;;;19.85;38.38;99531.66;5051241;28;806;-58
2021/09/14 00:13:25;;;;;;;;;;;;;;;19.78;38.64;99538.38;5051229;28;818;-58
2021/09/14 00:15:51;;;;;;;;;;;;;;;19.72;38.83;99542.31;5033232;28;1485;-58
2021/09/14 00:18:18;;;;;;;;;;;;;;;19.66;39.02;99549.75;5051172;28;799;-58
2021/09/14 00:20:45;;;;;;;;;;;;;;;19.62;39.01;99544.31;5050842;28;1419;-58
2021/09/14 00:23:10;;;;;;;;;;;;;;;19.61;39.20;99541.97;5051103;28;822;-58
2021/09/14 00:25:37;;;;;;;;;;;;;;;19.61;39.34;99547.59;5051206;28;787;-58
2021/09/14 00:28:04;;;;;;;;;;;;;;;19.57;39.29;99542.94;5050894;28;1979;-58
2021/09/14 00:30:30;;;;;;;;;;;;;;;19.57;39.45;99550.56;5051041;28;815;-58
2021/09/14 00:32:57;;;;;;;;;;;;;;;19.57;39.33;99548.53;5051069;28;843;-57
2021/09/14 00:35:23;;;;;;;;;;;;;;;19.59;39.41;99556.47;5050935;28;811;-58
2021/09/14 00:37:50;;;;;;;;;;;;;;;19.54;39.58;99551.50;5051780;28;869;-58
2021/09/14 00:40:15;;;;;;;;;;;;;;;19.54;39.66;99543.09;5054990;28;846;-58
2021/09/14 00:42:42;;;;;;;;;;;;;;;19.56;39.47;99546.19;5036830;28;1398;-58
2021/09/14 00:45:09;;;;;;;;;;;;;;;19.58;39.60;99547.28;5054638;28;838;-57
2021/09/14 00:47:36;;;;;;;;;;;;;;;19.55;39.54;99541.84;5054576;28;1886;-58
2021/09/14 00:50:04;;;;;;;;;;;;;;;19.53;39.70;99547.91;5054610;28;826;-57
2021/09/14 00:52:32;;;;;;;;;;;;;;;19.52;39.69;99546.38;5054527;28;921;-58
2021/09/14 00:54:58;;;;;;;;;;;;;;;19.49;39.71;99544.50;5054478;28;824;-57
2021/09/14 00:57:25;;;;;;;;;;;;;;;19.52;39.66;99539.97;5054383;28;870;-57
2021/09/14 00:59:51;;;;;;;;;;;;;;;19.51;39.76;99538.44;5054432;28;803;-58
2021/09/14 01:02:18;;;;;;;;;;;;;;;19.49;39.79;99546.53;5054269;28;888;-58
2021/09/14 01:04:44;;;;;;;;;;;;;;;19.46;40.03;99536.25;5054528;28;862;-58
2021/09/14 01:07:11;;;;;;;;;;;;;;;19.43;40.08;99529.56;5054192;28;1890;-57
2021/09/14 01:09:39;;;;;;;;;;;;;;;19.47;39.95;99530.19;5054240;28;873;-57
2021/09/14 01:12:07;;;;;;;;;;;;;;;19.49;40.15;99538.13;5054163;28;961;-57
2021/09/14 01:14:33;;;;;;;;;;;;;;;19.48;40.16;99536.56;5054285;28;811;-57
2021/09/14 01:20:05;;;;;;;;;;;;;;;19.57;39.90;99537.31;5051937;28;1120;-58
2021/09/14 01:22:32;;;;;;;;;;;;;;;19.58;40.16;99532.50;5054556;28;786;-57
2021/09/14 01:24:59;;;;;;;;;;;;;;;19.54;40.30;99538.28;5054349;28;851;-58
2021/09/14 01:27:26;;;;;;;;;;;;;;;19.55;40.38;99539.81;5053801;28;1918;-58
2021/09/14 01:32:38;;;;;;;;;;;;;;;19.53;40.65;99544.34;5054076;28;1166;-57
2021/09/14 01:35:15;;;;;;;;;;;;;;;19.54;40.62;99537.47;5053658;28;783;-57
2021/09/14 01:37:41;;;;;;;;;;;;;;;19.52;40.68;99540.78;5053673;28;827;-56
2021/09/14 01:40:08;;;;;;;;;;;;;;;19.52;40.65;99532.38;5035809;28;1188;-57
2021/09/14 01:42:35;;;;;;;;;;;;;;;19.51;40.82;99538.44;5053620;28;819;-58
2021/09/14 01:45:03;;;;;;;;;;;;;;;19.50;40.82;99534.06;5053657;28;811;-57
2021/09/14 01:47:29;;;;;;;;;;;;;;;19.49;40.98;99536.09;5053425;28;1889;-57
2021/09/14 01:49:55;;;;;;;;;;;;;;;19.53;40.89;99536.72;5053224;28;837;-58
2021/09/14 01:52:24;;;;;;;;;;;;;;;19.53;40.99;99536.72;5053411;28;861;-58
2021/09/14 01:54:51;;;;;;;;;;;;;;;19.51;41.09;99533.59;5053323;28;860;-58
2021/09/14 01:57:25;;;;;;;;;;;;;;;19.52;41.13;99531.56;5053286;28;831;-57
2021/09/14 01:59:54;;;;;;;;;;;;;;;19.53;41.08;99535.94;5053300;28;893;-57
2021/09/14 02:05:05;;;;;;;;;;;;;;;19.51;41.18;99542.00;5053201;28;624;-58
2021/09/14 02:43:47;;;;;;;;;;;;;;;19.36;41.08;99547.47;5052718;28;793;-57
2021/09/14 03:00:39;;;;;;;;;;;;;;;19.21;41.31;99552.16;5051318;28;633;-57
2021/09/14 03:03:06;;;;;;;;;;;;;;;19.15;41.48;99548.44;5052080;28;803;-57
2021/09/14 03:05:32;;;;;;;;;;;;;;;19.12;41.44;99555.00;5052032;28;818;-57
2021/09/14 03:07:59;;;;;;;;;;;;;;;19.15;41.31;99556.84;5052171;28;1901;-56
2021/09/14 03:10:25;;;;;;;;;;;;;;;19.21;41.13;99557.78;5051911;28;933;-57
2021/09/14 03:12:52;;;;;;;;;;;;;;;19.22;41.05;99564.91;5052288;28;845;-57
2021/09/14 03:15:19;;;;;;;;;;;;;;;19.26;40.98;99565.53;5051892;28;831;-57
2021/09/14 03:17:45;;;;;;;;;;;;;;;19.27;40.78;99560.75;5052351;28;934;-55
2021/09/14 03:20:12;;;;;;;;;;;;;;;19.23;40.90;99563.69;5051692;28;1203;-58
2021/09/14 03:22:38;;;;;;;;;;;;;;;19.20;40.74;99570.22;5051780;28;974;-57
2021/09/14 03:25:05;;;;;;;;;;;;;;;19.23;40.77;99571.31;5051710;28;846;-57
2021/09/14 03:27:34;;;;;;;;;;;;;;;19.24;40.49;99573.63;5051566;28;1969;-57
2021/09/14 03:30:01;;;;;;;;;;;;;;;19.27;40.35;99575.53;5051736;28;883;-58
2021/09/14 03:32:26;;;;;;;;;;;;;;;19.31;40.26;99575.34;5051681;28;810;-58
2021/09/14 03:34:53;;;;;;;;;;;;;;;19.30;40.10;99580.19;5051607;28;795;-57
2021/09/14 03:37:20;;;;;;;;;;;;;;;19.29;40.12;99581.44;5051594;28;795;-57
2021/09/14 03:39:47;;;;;;;;;;;;;;;19.33;39.86;99584.88;5051641;28;803;-58
2021/09/14 03:42:13;;;;;;;;;;;;;;;19.39;39.71;99587.78;5051610;28;795;-55
2021/09/14 03:44:39;;;;;;;;;;;;;;;19.37;39.64;99590.28;5051572;28;960;-57
2021/09/14 03:47:06;;;;;;;;;;;;;;;19.31;39.84;99592.16;5051705;28;1947;-57
2021/09/14 03:49:33;;;;;;;;;;;;;;;19.26;39.82;99596.38;5052012;28;849;-57
2021/09/14 03:52:00;;;;;;;;;;;;;;;19.22;39.96;99592.94;5051927;28;798;-58
2021/09/14 03:54:27;;;;;;;;;;;;;;;19.21;39.96;99593.44;5051609;28;807;-57
2021/09/14 03:56:53;;;;;;;;;;;;;;;19.21;39.83;99607.44;5051531;28;869;-57
2021/09/14 03:59:20;;;;;;;;;;;;;;;19.21;39.85;99599.81;5033839;28;1311;-57
2021/09/14 04:01:52;;;;;;;;;;;;;;;19.16;39.87;99606.00;5051732;28;854;-58
2021/09/14 04:04:23;;;;;;;;;;;;;;;19.10;40.00;99605.88;5051374;28;803;-58
2021/09/14 04:07:10;;;;;;;;;;;;;;;19.12;39.95;99611.00;5051229;28;1890;-57
2021/09/14 04:09:38;;;;;;;;;;;;;;;19.11;39.80;99606.63;5051263;28;870;-58
2021/09/14 04:12:04;;;;;;;;;;;;;;;19.12;39.94;99625.03;5052479;28;861;-57
2021/09/14 04:14:32;;;;;;;;;;;;;;;19.18;39.67;99617.53;5055310;28;795;-57
2021/09/14 04:16:58;;;;;;;;;;;;;;;19.24;39.52;99621.25;5055618;28;946;-57
2021/09/14 04:19:27;;;;;;;;;;;;;;;19.32;39.48;99619.72;5055188;28;810;-57
2021/09/14 04:21:53;;;;;;;;;;;;;;;19.40;39.37;99622.22;5054966;28;1382;-57
2021/09/14 04:24:20;;;;;;;;;;;;;;;19.47;39.10;99621.91;5054945;28;857;-57
2021/09/14 04:26:48;;;;;;;;;;;;;;;19.51;39.21;99622.53;5055008;28;1973;-56
2021/09/14 04:29:14;;;;;;;;;;;;;;;19.55;38.88;99625.94;5055008;28;823;-57
2021/09/14 04:31:41;;;;;;;;;;;;;;;19.61;38.82;99629.69;5037032;28;926;-57
2021/09/14 04:34:07;;;;;;;;;;;;;;;19.69;38.62;99636.50;5054960;28;803;-56
2021/09/14 04:36:34;;;;;;;;;;;;;;;19.77;38.54;99640.56;5054810;28;856;-57
2021/09/14 04:39:01;;;;;;;;;;;;;;;19.87;38.45;99635.72;5054827;28;810;-55
2021/09/14 04:41:28;;;;;;;;;;;;;;;19.97;38.09;99642.09;5054894;28;998;-57
2021/09/14 04:43:55;;;;;;;;;;;;;;;20.03;37.88;99639.44;5054789;28;803;-56
2021/09/14 04:46:22;;;;;;;;;;;;;;;20.13;37.85;99636.13;5054953;28;848;-57
2021/09/14 04:48:48;;;;;;;;;;;;;;;20.22;37.97;99631.75;5036594;28;1903;-57
2021/09/14 04:51:15;;;;;;;;;;;;;;;20.30;37.69;99641.38;5054514;28;916;-57
2021/09/14 04:53:42;;;;;;;;;;;;;;;20.42;37.54;99643.19;5036543;28;1334;-55
2021/09/14 04:56:08;;;;;;;;;;;;;;;20.53;37.19;99637.06;5054499;28;858;-57
2021/09/14 04:58:39;;;;;;;;;;;;;;;20.62;37.20;99644.69;5054765;28;807;-57
2021/09/14 05:01:06;;;;;;;;;;;;;;;20.71;37.11;99639.03;5054424;28;1040;-57
2021/09/14 05:03:32;;;;;;;;;;;;;;;20.80;36.75;99639.75;5054401;28;794;-57
2021/09/14 05:05:58;;;;;;;;;;;;;;;20.93;36.50;99645.16;5054361;28;815;-57
2021/09/14 05:08:25;;;;;;;;;;;;;;;21.01;36.29;99640.69;5054405;28;1957;-57
2021/09/14 05:16:07;;;;;;;;;;;;;;;21.41;35.84;99639.50;5984694;22;1702;-71
2021/09/14 05:18:34;;;;;;;;;;;;;;;21.58;35.91;99644.69;5090457;28;1251;-70
2021/09/14 05:21:00;;;;;;;;;;;;;;;21.77;35.52;99643.25;5094667;28;822;-69
2021/09/14 05:23:30;;;;;;;;;;;;;;;21.94;35.38;99651.22;5094070;28;805;-69
2021/09/14 05:25:58;;;;;;;;;;;;;;;22.05;35.04;99648.59;5075998;28;1277;-69
2021/09/14 05:28:24;;;;;;;;;;;;;;;22.23;35.02;99656.06;5094162;28;1910;-69
2021/09/14 05:30:51;;;;;;;;;;;;;;;22.44;34.40;99651.28;5094429;28;822;-70
2021/09/14 05:33:18;;;;;;;;;;;;;;;22.59;34.46;99659.69;5075883;28;1526;-69
2021/09/14 05:35:46;;;;;;;;;;;;;;;22.65;34.07;99662.59;5094092;28;857;-70
2021/09/14 05:38:13;;;;;;;;;;;;;;;22.74;34.34;99656.84;5094025;28;814;-69
2021/09/14 05:40:39;;;;;;;;;;;;;;;22.87;34.11;99659.31;5093888;28;904;-70
2021/09/14 05:43:06;;;;;;;;;;;;;;;23.03;33.63;99656.00;5093963;28;833;-69
2021/09/14 05:45:33;;;;;;;;;;;;;;;23.22;33.40;99664.94;5093807;28;826;-70
2021/09/14 05:48:00;;;;;;;;;;;;;;;23.53;33.01;99664.28;5093696;28;1939;-69
2021/09/14 05:50:26;;;;;;;;;;;;;;;23.94;32.14;99674.72;5093786;28;837;-69
2021/09/14 05:52:53;;;;;;;;;;;;;;;24.18;31.73;99675.22;5093923;28;802;-68
2021/09/14 05:55:19;;;;;;;;;;;;;;;24.17;31.26;99679.31;5093757;28;884;-71
2021/09/14 05:57:46;;;;;;;;;;;;;;;24.28;31.50;99675.81;5093898;28;881;-71
2021/09/14 06:00:14;;;;;;;;;;;;;;;24.48;30.89;99682.66;5093783;28;877;-70
2021/09/14 06:02:40;;;;;;;;;;;;;;;24.49;30.88;99684.97;5093807;28;848;-68
2021/09/14 06:05:07;;;;;;;;;;;;;;;24.51;30.68;99682.44;5093726;28;818;-70
2021/09/14 06:07:34;;;;;;;;;;;;;;;24.57;30.85;99686.06;5093738;28;1948;-69
2021/09/14 06:10:01;;;;;;;;;;;;;;;24.73;30.71;99683.88;5093789;28;858;-69
2021/09/14 06:12:28;;;;;;;;;;;;;;;24.94;30.14;99688.09;5093667;28;984;-68
2021/09/14 06:14:54;;;;;;;;;;;;;;;24.90;30.44;99681.16;5094000;28;821;-68
2021/09/14 06:17:21;;;;;;;;;;;;;;;24.94;30.41;99690.94;5093417;28;1198;-70
2021/09/14 06:19:48;;;;;;;;;;;;;;;24.86;30.59;99689.88;5094069;28;810;-69
2021/09/14 06:22:14;;;;;;;;;;;;;;;24.78;30.81;99688.78;5093163;28;858;-68
2021/09/14 06:24:41;;;;;;;;;;;;;;;24.70;30.77;99705.44;5093950;28;845;-69
2021/09/14 06:27:08;;;;;;;;;;;;;;;24.72;30.65;99697.22;5092935;28;1969;-69
2021/09/14 06:29:34;;;;;;;;;;;;;;;25.10;30.57;99705.69;5093046;28;825;-69
2021/09/14 06:32:01;;;;;;;;;;;;;;;25.68;29.65;99695.66;5092852;28;861;-70
2021/09/14 06:34:27;;;;;;;;;;;;;;;25.90;28.78;99693.41;5092831;28;881;-70
2021/09/14 06:36:53;;;;;;;;;;;;;;;26.21;28.55;99703.78;5093137;28;873;-68
2021/09/14 06:39:23;;;;;;;;;;;;;;;26.37;28.05;99699.38;5092739;28;846;-69
2021/09/14 06:41:50;;;;;;;;;;;;;;;26.51;27.83;99700.44;5092740;28;865;-70
2021/09/14 06:44:17;;;;;;;;;;;;;;;26.46;27.68;99705.56;5092530;28;810;-70
2021/09/14 06:46:55;;;;;;;;;;;;;;;26.55;28.02;99701.69;5074393;28;1930;-69
2021/09/14 06:49:21;;;;;;;;;;;;;;;26.87;27.83;99707.09;5092615;28;893;-68
2021/09/14 06:51:48;;;;;;;;;;;;;;;27.35;26.80;99708.78;5092656;28;805;-69
2021/09/14 06:54:15;;;;;;;;;;;;;;;27.90;26.68;99711.91;5092544;28;877;-68
2021/09/14 06:56:41;;;;;;;;;;;;;;;28.26;26.20;99709.84;5092517;28;845;-68
2021/09/14 06:59:08;;;;;;;;;;;;;;;28.28;25.94;99717.84;5092486;28;818;-68
2021/09/14 07:01:35;;;;;;;;;;;;;;;28.04;26.42;99715.69;5092467;28;881;-68
2021/09/14 07:04:02;;;;;;;;;;;;;;;28.14;26.16;99708.38;5092382;28;897;-68
2021/09/14 07:06:28;;;;;;;;;;;;;;;28.33;25.59;99717.03;5092588;28;826;-69
2021/09/14 07:08:55;;;;;;;;;;;;;;;28.43;25.81;99717.47;5092251;28;1984;-72
2021/09/14 07:11:23;;;;;;;;;;;;;;;28.55;25.79;99718.16;5092300;28;916;-68
